Time;durP1;ratioP1;P1;durP2;ratioP2;P2;SDS_P1;SDS_P2;PMS_P1;PMS_P2;Temp;Humidity;BMP_temperature;BMP_pressure;BME280_temperature;BME280_humidity;BME280_pressure;Samples;Min_cycle;Max_cycle;Signal;HPM_P1;HPM_P2
2022/05/18 00:01:24;;;;;;;6.15;4.35;;;;;;;15.66;100.00;100519.25;5071901;28;20465;-75
2022/05/18 00:03:53;;;;;;;8.30;4.30;;;;;;;15.74;100.00;100516.84;5072440;28;20051;-75
2022/05/18 00:06:23;;;;;;;7.53;4.53;;;;;;;15.73;100.00;100520.50;5072721;28;20044;-75
2022/05/18 00:08:51;;;;;;;8.07;5.00;;;;;;;15.75;100.00;100526.59;5072225;28;20068;-76
2022/05/18 00:11:20;;;;;;;7.93;4.97;;;;;;;15.70;100.00;100531.47;5072335;28;20501;-75
2022/05/18 00:13:51;;;;;;;7.15;4.90;;;;;;;15.73;100.00;100531.25;5076235;28;20051;-79
2022/05/18 00:16:21;;;;;;;8.05;4.93;;;;;;;15.64;100.00;100530.13;5075473;28;20560;-80
2022/05/18 00:18:50;;;;;;;7.35;5.07;;;;;;;15.68;100.00;100528.91;5074823;28;20044;-81
2022/05/18 00:21:18;;;;;;;7.40;4.95;;;;;;;15.76;100.00;100530.16;5074972;28;20052;-80
2022/05/18 00:23:48;;;;;;;8.25;4.90;;;;;;;15.66;100.00;100530.84;5074944;28;20052;-81
2022/05/18 00:26:16;;;;;;;7.45;4.72;;;;;;;15.61;100.00;100533.03;5076257;28;20497;-80
2022/05/18 00:28:44;;;;;;;10.15;4.43;;;;;;;15.59;100.00;100526.88;5075011;28;20436;-80
2022/05/18 00:31:14;;;;;;;8.20;4.80;;;;;;;15.62;100.00;100533.88;5076334;28;20040;-80
2022/05/18 00:33:43;;;;;;;7.03;4.10;;;;;;;15.68;100.00;100530.75;5075985;28;20393;-78
2022/05/18 00:36:11;;;;;;;9.10;4.35;;;;;;;15.69;100.00;100530.63;5074681;28;20045;-78
2022/05/18 00:38:39;;;;;;;10.60;4.75;;;;;;;15.59;100.00;100534.09;5076017;28;20079;-77
2022/05/18 00:41:09;;;;;;;6.20;3.53;;;;;;;15.64;100.00;100537.34;5075651;28;20040;-78
2022/05/18 00:43:42;;;;;;;5.93;3.67;;;;;;;15.68;100.00;100541.50;5076002;28;20040;-77
2022/05/18 00:46:13;;;;;;;7.97;3.93;;;;;;;15.63;100.00;100551.72;5075585;28;20037;-78
2022/05/18 00:48:42;;;;;;;7.47;3.92;;;;;;;15.54;100.00;100549.72;5076100;28;20048;-77
2022/05/18 00:51:28;;;;;;;6.40;4.13;;;;;;;15.51;100.00;100550.81;5075242;28;20492;-78
2022/05/18 00:54:03;;;;;;;7.03;3.75;;;;;;;15.48;100.00;100552.88;5075611;28;20054;-78
2022/05/18 00:56:40;;;;;;;7.78;4.15;;;;;;;15.41;100.00;100556.03;5075787;28;20041;-77
2022/05/18 00:59:13;;;;;;;7.60;3.90;;;;;;;15.40;100.00;100551.63;5075409;28;20037;-78
2022/05/18 01:01:42;;;;;;;7.75;4.30;;;;;;;15.44;100.00;100552.25;5075704;28;20045;-78
2022/05/18 01:04:13;;;;;;;9.10;4.40;;;;;;;15.27;100.00;100555.34;5074083;28;20463;-78
2022/05/18 01:06:45;;;;;;;8.38;4.60;;;;;;;15.21;100.00;100556.66;5075664;28;20481;-78
2022/05/18 01:09:18;;;;;;;8.63;4.60;;;;;;;15.19;100.00;100564.00;5075325;28;20481;-78
2022/05/18 01:11:48;;;;;;;;;;;;;;;15.12;100.00;100576.16;5074872;28;20132;-76
2022/05/18 01:14:22;;;;;;;8.45;4.18;;;;;;;15.22;100.00;100577.19;5075397;28;19968;-76
2022/05/18 01:16:52;;;;;;;6.50;3.92;;;;;;;15.08;100.00;100582.75;5075343;28;20045;-77
2022/05/18 01:19:29;;;;;;;9.88;4.20;;;;;;;14.93;100.00;100587.38;5075100;28;20394;-77
2022/05/18 01:22:12;;;;;;;8.27;4.03;;;;;;;14.85;100.00;100587.09;5075057;28;20071;-75
2022/05/18 01:24:48;;;;;;;8.75;4.18;;;;;;;14.85;100.00;100582.56;5074618;28;20036;-75
2022/05/18 01:27:17;;;;;;;6.00;3.90;;;;;;;14.76;100.00;100593.13;5074207;28;20052;-75
2022/05/18 01:29:45;;;;;;;6.13;4.10;;;;;;;14.87;100.00;100590.53;5075261;28;20098;-75
2022/05/18 01:32:15;;;;;;;7.68;4.55;;;;;;;14.86;100.00;100589.69;5074903;28;20041;-75
2022/05/18 01:34:43;;;;;;;5.78;3.88;;;;;;;14.80;100.00;100590.13;5076189;28;20090;-86
2022/05/18 01:37:14;;;;;;;9.15;4.07;;;;;;;14.79;100.00;100599.16;5074335;28;20051;-85
2022/05/18 01:39:48;;;;;;;7.07;4.13;;;;;;;14.77;100.00;100594.88;5074875;28;20056;-88
2022/05/18 01:42:26;;;;;;;10.25;4.15;;;;;;;14.75;100.00;100586.91;5074786;28;20045;-78
2022/05/18 01:44:54;;;;;;;7.15;4.00;;;;;;;14.73;100.00;100593.34;5073275;28;20053;-78
2022/05/18 01:47:23;;;;;;;6.63;4.13;;;;;;;14.66;100.00;100592.91;5074732;28;20397;-78
2022/05/18 01:49:54;;;;;;;7.03;4.00;;;;;;;14.44;100.00;100593.56;5074295;28;20055;-75
2022/05/18 01:52:23;;;;;;;10.88;4.15;;;;;;;14.48;100.00;100602.31;5074900;28;20051;-81
2022/05/18 01:54:51;;;;;;;5.38;3.67;;;;;;;14.47;100.00;100603.25;5073208;28;20072;-76
2022/05/18 01:57:21;;;;;;;8.27;4.07;;;;;;;14.35;100.00;100606.78;5074671;28;20120;-76
2022/05/18 01:59:49;;;;;;;5.63;3.83;;;;;;;14.35;100.00;100604.09;5074535;28;20123;-76
2022/05/18 02:02:18;;;;;;;7.75;4.00;;;;;;;14.37;100.00;100607.53;5074466;28;20106;-79
2022/05/18 02:04:46;;;;;;;8.15;3.85;;;;;;;14.32;100.00;100622.13;5074118;28;20075;-78
2022/05/18 02:07:15;;;;;;;8.32;4.15;;;;;;;14.23;100.00;100624.59;5074104;28;20040;-77
2022/05/18 02:09:44;;;;;;;7.47;4.35;;;;;;;14.24;100.00;100624.50;5072983;28;20438;-78
2022/05/18 02:12:13;;;;;;;10.07;4.30;;;;;;;14.10;100.00;100627.28;5074030;28;20492;-79
2022/05/18 02:14:42;;;;;;;7.63;4.30;;;;;;;14.02;100.00;100624.25;5074378;28;20076;-76
2022/05/18 02:17:10;;;;;;;7.32;4.28;;;;;;;14.02;100.00;100635.84;5072661;28;20040;-83
2022/05/18 02:19:39;;;;;;;6.95;4.68;;;;;;;13.91;100.00;100626.81;5074111;28;20047;-83
2022/05/18 02:22:07;;;;;;;11.40;4.55;;;;;;;13.89;100.00;100634.94;5073688;28;20056;-79
2022/05/18 02:24:35;;;;;;;11.02;4.55;;;;;;;13.87;100.00;100636.03;5074116;28;20040;-74
2022/05/18 02:27:05;;;;;;;10.25;4.70;;;;;;;13.71;100.00;100639.75;5073447;28;20102;-71
2022/05/18 02:29:33;;;;;;;8.93;4.50;;;;;;;13.79;100.00;100649.06;5072692;28;20052;-72
2022/05/18 02:32:03;;;;;;;10.27;4.80;;;;;;;13.68;100.00;100644.44;5073725;28;20064;-75
2022/05/18 02:34:32;;;;;;;7.75;4.75;;;;;;;13.69;100.00;100654.19;5073663;28;20040;-77
2022/05/18 02:37:00;;;;;;;8.02;4.53;;;;;;;13.51;100.00;100656.31;5072171;28;20413;-76
2022/05/18 02:39:28;;;;;;;11.93;4.95;;;;;;;13.63;100.00;100665.34;5073442;28;20485;-77
2022/05/18 02:41:57;;;;;;;7.78;5.07;;;;;;;13.52;100.00;100663.38;5073401;28;20056;-75
2022/05/18 02:44:26;;;;;;;10.90;4.47;;;;;;;13.56;100.00;100664.88;5072090;28;20127;-77
2022/05/18 02:46:57;;;;;;;7.68;4.28;;;;;;;13.45;100.00;100672.78;5073569;28;20115;-78
2022/05/18 02:49:28;;;;;;;7.50;4.20;;;;;;;13.50;100.00;100670.63;5073267;28;20559;-73
2022/05/18 02:51:57;;;;;;;7.40;4.25;;;;;;;13.40;100.00;100672.19;5073348;28;20086;-76
2022/05/18 02:57:12;;;;;;;7.38;4.25;;;;;;;13.39;100.00;100684.75;5072958;28;20036;-75
2022/05/18 02:59:42;;;;;;;10.55;4.35;;;;;;;13.31;100.00;100692.41;5072178;28;20127;-74
2022/05/18 03:02:11;;;;;;;6.65;4.65;;;;;;;13.31;100.00;100692.41;5072128;28;20071;-74
2022/05/18 03:04:41;;;;;;;7.93;4.00;;;;;;;13.36;100.00;100700.16;5073332;28;20493;-74
2022/05/18 03:07:09;;;;;;;8.07;4.35;;;;;;;13.36;100.00;100708.19;5071702;28;20054;-74
2022/05/18 03:09:38;;;;;;;8.73;4.22;;;;;;;13.31;100.00;100699.59;5072115;28;20071;-74
2022/05/18 03:12:07;;;;;;;7.43;4.60;;;;;;;13.11;100.00;100701.69;5073208;28;20086;-75
2022/05/18 03:14:36;;;;;;;7.85;4.07;;;;;;;13.18;100.00;100711.06;5072961;28;20044;-74
2022/05/18 03:17:05;;;;;;;8.68;4.35;;;;;;;13.13;100.00;100715.88;5072666;28;20049;-74
2022/05/18 03:19:33;;;;;;;8.98;4.20;;;;;;;13.06;100.00;100719.88;5073355;28;20075;-74
2022/05/18 03:24:49;;;;;;;11.05;4.43;;;;;;;13.08;100.00;100728.69;5073227;28;20119;-74
2022/05/18 03:27:17;;;;;;;7.10;4.28;;;;;;;13.11;100.00;100723.13;5071634;28;20132;-74
2022/05/18 03:29:45;;;;;;;9.55;4.68;;;;;;;13.12;100.00;100730.22;5073051;28;20097;-74
2022/05/18 03:32:14;;;;;;;9.20;4.65;;;;;;;13.03;100.00;100743.34;5072896;28;20040;-74
2022/05/18 03:34:43;;;;;;;9.15;4.60;;;;;;;13.02;100.00;100747.78;5073228;28;20134;-74
2022/05/18 03:37:13;;;;;;;8.10;4.93;;;;;;;13.13;100.00;100748.00;5071439;28;20051;-74
2022/05/18 03:39:41;;;;;;;7.82;4.75;;;;;;;13.24;100.00;100749.19;5072764;28;20124;-74
2022/05/18 03:42:10;;;;;;;7.32;4.60;;;;;;;13.20;100.00;100756.53;5072674;28;20048;-74
2022/05/18 03:44:38;;;;;;;8.07;4.53;;;;;;;13.28;100.00;100756.91;5072996;28;20082;-74
2022/05/18 03:47:07;;;;;;;7.72;4.70;;;;;;;13.13;100.00;100753.38;5073776;28;20136;-74
2022/05/18 03:49:35;;;;;;;8.27;4.30;;;;;;;13.26;100.00;100768.69;5075391;28;20520;-74
2022/05/18 03:52:05;;;;;;;8.10;4.57;;;;;;;13.15;100.00;100778.22;5076456;28;20047;-75
2022/05/18 03:54:38;;;;;;;8.05;4.47;;;;;;;13.22;100.00;100783.22;5077044;28;20097;-74
2022/05/18 03:57:10;;;;;;;8.18;3.88;;;;;;;14.02;100.00;100785.19;5075220;28;20122;-74
2022/05/18 03:59:39;;;;;;;8.32;4.03;;;;;;;14.43;100.00;100792.28;5076685;28;20045;-74
2022/05/18 04:02:07;;;;;;;6.70;3.72;;;;;;;15.18;100.00;100806.81;5075578;28;20060;-74
2022/05/18 04:04:35;;;;;;;7.55;3.85;;;;;;;15.65;100.00;100800.75;5076730;28;20444;-74
2022/05/18 04:07:08;;;;;;;10.00;3.80;;;;;;;15.39;100.00;100816.03;5076654;28;20114;-73
2022/05/18 04:09:38;;;;;;;6.00;3.97;;;;;;;15.50;100.00;100809.00;5076595;28;20281;-74
2022/05/18 04:12:08;;;;;;;8.82;3.47;;;;;;;15.68;100.00;100813.97;5076180;28;20040;-74
2022/05/18 04:14:36;;;;;;;6.60;3.53;;;;;;;15.24;100.00;100825.16;5076457;28;20054;-76
2022/05/18 04:17:05;;;;;;;8.70;3.58;;;;;;;16.06;100.00;100829.13;5076389;28;20098;-77
2022/05/18 04:19:33;;;;;;;7.43;3.45;;;;;;;16.37;100.00;100833.06;5075005;28;20045;-77
2022/05/18 04:22:01;;;;;;;6.28;3.33;;;;;;;17.00;100.00;100836.41;5076294;28;20456;-76
2022/05/18 04:24:30;;;;;;;5.85;3.42;;;;;;;17.07;100.00;100833.09;5076436;28;20048;-75
2022/05/18 04:26:59;;;;;;;9.98;3.20;;;;;;;16.59;100.00;100848.47;5076287;28;20068;-75
2022/05/18 04:29:28;;;;;;;6.68;3.00;;;;;;;15.90;100.00;100848.22;5075990;28;20044;-75
2022/05/18 04:31:56;;;;;;;5.82;3.03;;;;;;;15.45;100.00;100858.59;5075714;28;20127;-76
2022/05/18 04:34:27;;;;;;;5.85;3.05;;;;;;;15.06;100.00;100853.34;5076007;28;20040;-75
2022/05/18 04:36:55;;;;;;;5.53;2.95;;;;;;;14.58;100.00;100858.41;5076079;28;20039;-75
2022/05/18 04:39:26;;;;;;;10.63;3.08;;;;;;;14.53;100.00;100855.16;5075869;28;20106;-77
2022/05/18 04:41:54;;;;;;;7.63;3.13;;;;;;;14.96;100.00;100860.28;5076023;28;20496;-74
2022/05/18 04:44:24;;;;;;;6.03;2.97;;;;;;;16.27;100.00;100872.44;5074306;28;20059;-74
2022/05/18 04:46:56;;;;;;;6.70;2.92;;;;;;;15.74;100.00;100877.22;5075816;28;20432;-75
2022/05/18 04:49:26;;;;;;;4.53;2.70;;;;;;;15.38;100.00;100886.88;5075496;28;20040;-73
2022/05/18 04:51:55;;;;;;;5.18;3.00;;;;;;;15.66;100.00;100890.34;5075475;28;20094;-73
2022/05/18 04:54:27;;;;;;;8.02;3.40;;;;;;;15.75;100.00;100895.06;5074041;28;20481;-75
2022/05/18 04:56:55;;;;;;;4.93;2.85;;;;;;;16.19;100.00;100888.28;5075751;28;20043;-73
2022/05/18 04:59:25;;;;;;;7.30;3.03;;;;;;;15.63;100.00;100906.69;5074121;28;20051;-73
2022/05/18 05:01:54;;;;;;;8.02;2.90;;;;;;;16.49;100.00;100910.22;5075413;28;20397;-74
2022/05/18 05:04:22;;;;;;;6.35;3.20;;;;;;;16.28;100.00;100907.31;5075210;28;20037;-73
2022/05/18 05:06:51;;;;;;;6.93;2.70;;;;;;;15.91;100.00;100917.19;5075416;28;20048;-74
2022/05/18 05:09:22;;;;;;;5.90;2.50;;;;;;;15.95;100.00;100924.09;5074955;28;20385;-74
2022/05/18 05:11:50;;;;;;;6.55;2.55;;;;;;;16.95;100.00;100930.19;5074166;28;20084;-74
2022/05/18 05:14:19;;;;;;;5.10;2.50;;;;;;;16.70;100.00;100936.59;5075115;28;20041;-74
2022/05/18 05:16:49;;;;;;;4.15;2.58;;;;;;;17.73;100.00;100944.75;5075369;28;20389;-73
2022/05/18 05:19:18;;;;;;;8.07;2.83;;;;;;;17.93;100.00;100953.97;5074864;28;20090;-74
2022/05/18 05:21:46;;;;;;;8.68;2.30;;;;;;;17.74;100.00;100957.25;5075099;28;20119;-73
2022/05/18 05:24:17;;;;;;;4.07;2.30;;;;;;;18.28;100.00;100944.88;5073394;28;20074;-74
2022/05/18 05:26:45;;;;;;;4.57;2.28;;;;;;;18.48;100.00;100946.78;5074817;28;20055;-73
2022/05/18 05:29:14;;;;;;;5.93;2.33;;;;;;;19.05;100.00;100950.19;5074105;28;20481;-74
2022/05/18 05:31:42;;;;;;;4.93;2.38;;;;;;;18.99;100.00;100961.53;5074639;28;20075;-74
2022/05/18 05:34:13;;;;;;;7.90;2.20;;;;;;;17.36;100.00;100967.44;5074522;28;20051;-74
2022/05/18 05:36:41;;;;;;;6.32;2.40;;;;;;;17.56;100.00;100968.59;5074760;28;20086;-73
2022/05/18 05:39:09;;;;;;;4.72;2.10;;;;;;;18.15;100.00;100971.16;5074475;28;20068;-76
2022/05/18 05:41:37;;;;;;;8.00;2.72;;;;;;;19.23;75.70;100970.28;5074612;28;20119;-77
2022/05/18 05:44:06;;;;;;;5.97;2.20;;;;;;;18.90;66.59;100973.09;5074251;28;20116;-74
2022/05/18 05:46:35;;;;;;;5.75;2.20;;;;;;;18.01;67.04;100986.59;5074240;28;20456;-75
2022/05/18 05:49:03;;;;;;;4.47;2.10;;;;;;;18.96;64.76;100980.72;5074182;28;20489;-72
2022/05/18 05:51:33;;;;;;;4.63;2.17;;;;;;;18.82;59.89;100993.53;5073068;28;20053;-76
2022/05/18 05:54:01;;;;;;;7.03;2.03;;;;;;;19.24;53.23;101004.44;5074338;28;20122;-76
2022/05/18 05:56:30;;;;;;;3.35;1.95;;;;;;;19.35;53.01;101004.38;5073797;28;20048;-74
2022/05/18 05:58:58;;;;;;;5.35;2.20;;;;;;;18.92;51.92;101017.13;5074260;28;20044;-76
2022/05/18 06:01:26;;;;;;;4.78;2.05;;;;;;;19.59;50.18;101008.72;5073929;28;20045;-74
2022/05/18 06:03:55;;;;;;;6.68;2.20;;;;;;;19.82;50.10;101020.28;5072801;28;20052;-73
2022/05/18 06:06:23;;;;;;;4.60;2.05;;;;;;;19.88;47.77;101015.19;5073920;28;20044;-72
2022/05/18 06:08:53;;;;;;;5.13;2.20;;;;;;;20.22;44.82;101031.16;5073787;28;20044;-72
2022/05/18 06:11:21;;;;;;;5.00;1.98;;;;;;;19.66;43.90;101031.56;5073758;28;20045;-73
2022/05/18 06:13:50;;;;;;;4.78;1.92;;;;;;;20.71;42.22;101032.25;5072725;28;20463;-71
2022/05/18 06:16:18;;;;;;;5.53;2.10;;;;;;;21.87;39.43;101037.72;5073570;28;20521;-71
2022/05/18 06:18:49;;;;;;;3.83;1.80;;;;;;;22.25;37.65;101036.78;5074104;28;20044;-73
2022/05/18 06:21:18;;;;;;;4.50;1.92;;;;;;;21.13;38.81;101047.31;5073627;28;20072;-72
2022/05/18 06:23:46;;;;;;;5.22;2.10;;;;;;;21.53;37.91;101050.94;5073506;28;20072;-73
2022/05/18 06:26:15;;;;;;;6.78;2.10;;;;;;;21.55;36.05;101057.91;5073096;28;20040;-75
2022/05/18 06:28:49;;;;;;;4.68;1.70;;;;;;;20.77;35.13;101064.22;5073768;28;20032;-73
2022/05/18 06:31:18;;;;;;;4.82;2.17;;;;;;;21.85;35.19;101069.59;5073159;28;20068;-74
2022/05/18 06:33:46;;;;;;;3.80;1.92;;;;;;;21.53;33.41;101068.06;5072291;28;20422;-73
2022/05/18 06:36:14;;;;;;;5.75;1.67;;;;;;;20.65;34.97;101084.28;5073379;28;20044;-75
2022/05/18 06:38:43;;;;;;;4.97;1.83;;;;;;;21.32;34.89;101084.47;5072279;28;20067;-74
2022/05/18 06:41:23;;;;;;;8.82;1.90;;;;;;;21.90;34.29;101086.31;5072312;28;20383;-74
2022/05/18 06:43:58;;;;;;;3.67;1.75;;;;;;;22.52;32.46;101090.34;5073363;28;20042;-74
2022/05/18 06:46:27;;;;;;;5.53;1.83;;;;;;;21.30;32.55;101097.31;5073444;28;20500;-74
2022/05/18 06:48:56;;;;;;;4.38;1.48;;;;;;;21.47;33.69;101098.50;5072474;28;20063;-74
2022/05/18 06:51:27;;;;;;;3.42;1.60;;;;;;;21.64;33.42;101099.66;5072990;28;20094;-74
2022/05/18 06:53:57;;;;;;;5.88;2.08;;;;;;;21.22;35.47;101117.97;5071925;28;20068;-73
2022/05/18 06:56:27;;;;;;;4.30;1.92;;;;;;;19.44;38.42;101111.81;5071866;28;20044;-73
2022/05/18 06:59:00;;;;;;;6.05;1.90;;;;;;;20.09;39.17;101109.09;5073135;28;20047;-73
2022/05/18 07:01:29;;;;;;;4.22;1.90;;;;;;;19.48;37.65;101114.25;5072801;28;20048;-74
2022/05/18 07:03:58;;;;;;;3.72;1.98;;;;;;;18.72;40.74;101113.31;5073199;28;20048;-73
2022/05/18 07:06:30;;;;;;;6.45;2.30;;;;;;;18.80;39.45;101119.81;5072727;28;20059;-73
2022/05/18 07:08:59;;;;;;;7.68;2.47;;;;;;;18.53;40.83;101132.84;5073031;28;20040;-74
2022/05/18 07:11:28;;;;;;;4.22;1.73;;;;;;;18.37;41.69;101130.47;5072767;28;20469;-74
2022/05/18 07:13:58;;;;;;;3.72;2.00;;;;;;;17.85;42.74;101142.59;5073164;28;20044;-73
2022/05/18 07:16:28;;;;;;;6.03;2.03;;;;;;;17.77;42.67;101142.38;5071644;28;20045;-73
2022/05/18 07:18:57;;;;;;;4.78;1.73;;;;;;;17.49;41.57;101157.03;5072804;28;20474;-74
2022/05/18 07:21:26;;;;;;;3.08;1.73;;;;;;;17.64;41.67;101147.78;5071542;28;20056;-74
2022/05/18 07:23:55;;;;;;;6.32;1.83;;;;;;;17.77;42.23;101149.59;5071451;28;20053;-73
2022/05/18 07:26:24;;;;;;;4.72;1.83;;;;;;;17.53;42.84;101157.66;5072582;28;20090;-73
2022/05/18 07:28:53;;;;;;;7.05;2.25;;;;;;;17.66;43.78;101164.72;5072982;28;20044;-73
2022/05/18 07:31:21;;;;;;;6.90;2.17;;;;;;;17.33;43.86;101165.41;5072406;28;20098;-73
2022/05/18 07:34:11;;;;;;;3.88;1.55;;;;;;;17.14;42.22;101160.50;5072758;28;20123;-74
2022/05/18 07:36:39;;;;;;;4.30;1.50;;;;;;;16.92;41.06;101163.03;5071339;28;20107;-74
2022/05/18 07:39:08;;;;;;;5.43;1.60;;;;;;;17.08;40.80;101166.34;5072911;28;20044;-74
2022/05/18 07:41:36;;;;;;;4.95;1.80;;;;;;;17.34;40.33;101174.34;5071111;28;20508;-74
2022/05/18 07:44:05;;;;;;;5.18;1.80;;;;;;;16.88;41.52;101172.31;5072850;28;20047;-74
2022/05/18 07:46:35;;;;;;;3.53;1.80;;;;;;;16.78;42.34;101182.00;5072646;28;20060;-74
2022/05/18 07:49:04;;;;;;;5.70;1.90;;;;;;;16.71;42.60;101178.91;5072522;28;20040;-73
2022/05/18 07:51:34;;;;;;;5.60;1.83;;;;;;;16.79;42.94;101178.34;5072700;28;20091;-74
2022/05/18 07:54:02;;;;;;;6.00;1.85;;;;;;;16.86;42.73;101179.63;5071462;28;20413;-74
2022/05/18 07:56:31;;;;;;;3.25;1.58;;;;;;;16.83;42.13;101191.50;5071200;28;20048;-74
2022/05/18 07:58:59;;;;;;;5.75;1.80;;;;;;;16.60;42.20;101197.66;5072462;28;20048;-74
2022/05/18 08:01:27;;;;;;;7.40;2.22;;;;;;;16.50;41.33;101192.03;5072630;28;20173;-74
2022/05/18 08:03:55;;;;;;;6.97;1.92;;;;;;;16.69;40.90;101198.84;5072692;28;20068;-74
2022/05/18 08:06:24;;;;;;;2.78;1.25;;;;;;;16.87;40.78;101217.25;5071112;28;20481;-74
2022/05/18 08:08:55;;;;;;;4.30;1.80;;;;;;;16.74;40.22;101212.84;5071395;28;20109;-74
2022/05/18 08:16:55;;;;;;;5.35;1.52;;;;;;;16.72;40.62;101220.19;5071284;28;20045;-74
2022/05/18 08:19:23;;;;;;;6.32;1.65;;;;;;;16.76;40.38;101219.00;5072280;28;20448;-74
2022/05/18 08:21:52;;;;;;;5.60;1.48;;;;;;;16.76;40.39;101229.75;5072369;28;20378;-73
2022/05/18 08:24:22;;;;;;;5.53;1.85;;;;;;;16.64;41.01;101222.53;5072447;28;20115;-81
2022/05/18 08:26:50;;;;;;;4.30;1.65;;;;;;;16.76;42.00;101224.38;5072650;28;20142;-74
2022/05/18 08:29:19;;;;;;;5.13;1.75;;;;;;;16.70;41.11;101231.06;5072458;28;20048;-74
2022/05/18 08:31:49;;;;;;;4.75;1.80;;;;;;;16.78;41.49;101235.91;5072705;28;20036;-74
2022/05/18 08:34:19;;;;;;;3.42;1.55;;;;;;;16.93;40.90;101240.22;5075893;28;20512;-74
2022/05/18 08:36:49;;;;;;;4.70;1.80;;;;;;;17.03;40.85;101241.28;5076046;28;20075;-74
2022/05/18 08:39:17;;;;;;;4.72;1.75;;;;;;;17.13;40.70;101241.47;5075512;28;20052;-74
2022/05/18 08:41:49;;;;;;;4.03;1.50;;;;;;;17.08;40.57;101244.53;5075690;28;20051;-74
2022/05/18 08:44:25;;;;;;;8.35;1.98;;;;;;;17.22;39.95;101250.75;5074367;28;20048;-74
2022/05/18 08:47:08;;;;;;;3.35;1.83;;;;;;;16.99;40.56;101239.78;5075138;28;20565;-74
2022/05/18 08:49:42;;;;;;;5.88;2.08;;;;;;;16.65;40.90;101257.44;5074613;28;20041;-74
2022/05/18 08:52:27;;;;;;;6.75;2.28;;;;;;;16.98;42.01;101248.81;5073907;28;20102;-74
2022/05/18 08:55:29;;;;;;;5.03;1.70;;;;;;;17.06;41.70;101251.84;5075243;28;20504;-73
2022/05/18 08:58:01;;;;;;;3.15;1.50;;;;;;;17.32;42.03;101244.56;5075330;28;20044;-73
2022/05/18 09:00:33;;;;;;;3.70;1.70;;;;;;;17.53;42.31;101249.38;5075224;28;20041;-74
2022/05/18 09:03:06;;;;;;;3.65;1.80;;;;;;;17.33;42.45;101249.00;5075377;28;20045;-74
2022/05/18 09:05:38;;;;;;;;;;;;;;;17.17;42.89;101251.91;5074210;28;20450;-74
2022/05/18 09:08:12;;;;;;;6.10;1.90;;;;;;;17.43;42.65;101249.19;5074164;28;19920;-74
2022/05/18 09:10:45;;;;;;;4.75;2.00;;;;;;;17.52;41.70;101259.28;5073459;28;20045;-74
2022/05/18 09:13:14;;;;;;;4.72;1.70;;;;;;;17.26;41.22;101257.63;5073703;28;20143;-73
2022/05/18 09:15:55;;;;;;;4.18;1.70;;;;;;;17.09;40.37;101240.00;5074627;28;20136;-74
2022/05/18 09:18:34;;;;;;;5.45;1.95;;;;;;;17.42;41.51;101253.72;5075267;28;20054;-74
2022/05/18 09:21:19;;;;;;;5.82;2.05;;;;;;;17.13;40.90;101247.72;5073749;28;20547;-74
2022/05/18 09:23:58;;;;;;;6.43;1.70;;;;;;;17.21;40.06;101246.34;5074578;28;20097;-74
2022/05/18 09:26:52;;;;;;;4.03;1.52;;;;;;;17.30;38.01;101269.94;5074941;28;20044;-74
2022/05/18 09:29:27;;;;;;;5.03;1.92;;;;;;;17.32;38.73;101241.03;5073888;28;20106;-74
2022/05/18 09:32:34;;;;;;;10.20;1.85;;;;;;;17.14;36.92;101252.16;5073843;28;20465;-74
2022/05/18 09:35:15;;;;;;;4.20;1.75;;;;;;;17.11;35.48;101252.38;5073922;28;20056;-74
2022/05/18 09:37:50;;;;;;;4.28;1.80;;;;;;;17.21;36.94;101255.28;5073657;28;20156;-74
2022/05/18 09:40:27;;;;;;;4.45;1.63;;;;;;;17.44;36.33;101246.38;5074539;28;20516;-74
2022/05/18 09:43:08;;;;;;;4.07;1.63;;;;;;;17.87;37.01;101251.34;5073403;28;20048;-74
2022/05/18 09:45:42;;;;;;;7.68;1.70;;;;;;;17.83;35.74;101251.66;5072209;28;20053;-74
2022/05/18 09:48:15;;;;;;;2.85;1.30;;;;;;;17.88;34.75;101257.59;5074279;28;20457;-74
2022/05/18 09:50:45;;;;;;;;;;;;;;;18.05;35.74;101259.88;5073174;28;20091;-74
2022/05/18 09:53:15;;;;;;;3.92;1.70;;;;;;;17.95;36.77;101266.94;5074310;28;19921;-74
2022/05/18 09:55:54;;;;;;;3.20;1.55;;;;;;;17.84;35.17;101270.44;5074208;28;20094;-74
2022/05/18 09:58:38;;;;;;;3.63;1.30;;;;;;;17.48;35.54;101262.34;5072846;28;20567;-74
2022/05/18 10:09:40;;;;;;;3.58;1.50;;;;;;;17.77;33.75;101276.41;5073931;28;20048;-82
2022/05/18 10:12:13;;;;;;;3.17;1.40;;;;;;;17.93;33.27;101271.59;5073494;28;20060;-73
2022/05/18 10:14:42;;;;;;;4.13;1.52;;;;;;;17.72;33.39;101263.25;5073633;28;20143;-75
2022/05/18 10:17:14;;;;;;;2.70;1.40;;;;;;;17.85;31.20;101272.16;5072542;28;20083;-73
2022/05/18 10:19:45;;;;;;;2.85;1.50;;;;;;;17.72;32.40;101256.03;5073402;28;20131;-74
2022/05/18 10:22:20;;;;;;;6.03;1.60;;;;;;;17.94;31.51;101267.91;5072690;28;20565;-74
2022/05/18 10:24:54;;;;;;;3.78;1.40;;;;;;;17.88;30.84;101263.00;5073509;28;20068;-73
2022/05/18 10:27:29;;;;;;;5.03;1.70;;;;;;;17.97;32.38;101259.59;5072379;28;20044;-73
2022/05/18 10:30:08;;;;;;;4.38;1.63;;;;;;;18.04;33.41;101266.22;5072511;28;20059;-73
2022/05/18 10:32:52;;;;;;;3.08;1.40;;;;;;;17.91;33.16;101260.06;5072093;28;20401;-75
2022/05/18 10:35:47;;;;;;;3.90;1.70;;;;;;;18.07;33.74;101248.97;5073579;28;20048;-75
2022/05/18 10:38:21;;;;;;;3.42;1.23;;;;;;;18.12;30.77;101258.41;5072335;28;20447;-74
2022/05/18 10:40:52;;;;;;;3.50;1.60;;;;;;;18.01;27.22;101259.25;5073641;28;20090;-75
2022/05/18 10:43:42;;;;;;;3.30;1.30;;;;;;;18.16;26.72;101241.03;5072101;28;20044;-75
2022/05/18 10:46:18;;;;;;;;;;;;;;;18.04;27.32;101241.94;5072655;28;20131;-75
2022/05/18 10:48:57;;;;;;;4.28;1.05;;;;;;;18.18;28.33;101241.78;5072759;28;19920;-74
2022/05/18 10:51:32;;;;;;;2.70;1.30;;;;;;;18.34;29.88;101246.00;5071860;28;20052;-74
2022/05/18 10:54:22;;;;;;;5.15;1.30;;;;;;;18.14;29.82;101245.66;5072077;28;20056;-74
2022/05/18 10:56:51;;;;;;;2.78;1.50;;;;;;;18.11;29.96;101242.34;5070858;28;20378;-74
2022/05/18 10:59:48;;;;;;;3.03;1.20;;;;;;;18.47;29.08;101230.56;5073229;28;20075;-74
2022/05/18 11:02:28;;;;;;;3.90;1.08;;;;;;;18.64;26.16;101227.41;5072203;28;20055;-74
2022/05/18 11:05:05;;;;;;;3.53;1.15;;;;;;;18.73;26.59;101215.91;5071779;28;20056;-74
2022/05/18 11:07:34;;;;;;;2.13;1.17;;;;;;;18.70;26.06;101232.34;5073201;28;20452;-75
2022/05/18 11:10:02;;;;;;;3.28;0.85;;;;;;;18.79;22.68;101220.81;5073372;28;20047;-74
2022/05/18 11:12:43;;;;;;;3.60;1.00;;;;;;;18.78;20.85;101218.22;5071863;28;20048;-74
2022/05/18 11:15:14;;;;;;;1.65;0.68;;;;;;;18.83;20.64;101233.13;5073499;28;20046;-75
2022/05/18 11:17:52;;;;;;;2.17;0.90;;;;;;;18.85;21.56;101224.88;5072969;28;20078;-75
2022/05/18 11:20:33;;;;;;;2.80;0.93;;;;;;;18.79;21.79;101219.94;5072837;28;20074;-74
2022/05/18 11:23:16;;;;;;;1.30;0.70;;;;;;;18.62;23.00;101223.09;5072085;28;20044;-74
2022/05/18 11:25:51;;;;;;;1.40;0.85;;;;;;;18.88;22.79;101220.06;5071551;28;20497;-75
2022/05/18 11:28:49;;;;;;;1.73;0.70;;;;;;;18.67;21.12;101220.94;5072776;28;20041;-75
2022/05/18 11:31:48;;;;;;;1.38;0.82;;;;;;;18.78;21.21;101213.69;5071752;28;20049;-75
2022/05/18 11:34:25;;;;;;;1.25;0.70;;;;;;;18.91;20.49;101220.81;5059687;28;20045;-74
2022/05/18 11:37:05;;;;;;;1.88;0.80;;;;;;;19.11;21.17;101218.25;5071369;28;20425;-75
2022/05/18 11:39:45;;;;;;;2.60;0.70;;;;;;;18.79;19.08;101223.50;5071690;28;20053;-75
2022/05/18 11:42:24;;;;;;;5.28;0.60;;;;;;;18.94;19.09;101223.28;5071823;28;20044;-74
2022/05/18 11:45:05;;;;;;;1.85;0.70;;;;;;;18.72;18.03;101211.50;5072752;28;20048;-75
2022/05/18 11:47:46;;;;;;;2.60;0.80;;;;;;;18.96;19.15;101207.78;5071634;28;20051;-74
2022/05/18 11:50:27;;;;;;;1.63;0.75;;;;;;;18.84;18.80;101209.66;5072521;28;20166;-74
2022/05/18 11:53:11;;;;;;;1.50;0.68;;;;;;;19.18;17.95;101210.47;5072492;28;20036;-74
2022/05/18 11:55:48;;;;;;;0.90;0.60;;;;;;;19.28;17.82;101227.69;5071242;28;20401;-75
2022/05/18 11:58:42;;;;;;;1.90;0.90;;;;;;;19.27;17.96;101212.44;5072640;28;20461;-74
2022/05/18 12:01:25;;;;;;;1.23;0.77;;;;;;;19.06;17.22;101214.19;5071409;28;20485;-74
2022/05/18 12:04:12;;;;;;;1.77;0.57;;;;;;;19.34;18.02;101210.97;5071114;28;20052;-74